Meteo Giornale » Osservazioni meteo Italia » Capo Mele

ore: 11:55 - Osservazioni Meteo Capo Mele
Lat. 43° 57' N Lon. 8° 10' E Alt. 220 metri s.l.m.

sereno Europe/Rome

27 °C

Sereno

Temp. 24 Ore

23 °C

29 °C

Sud-Ovest

29.6 Km/h

Dew point 21 °C

Umidità 69 %

Visibilità  10 Km

Il sole sorge alle ore 06:07

Il sole tramonta alle ore 21:00

Data e Ora Cielo e Fenomeni T °C DP °C Um. % Pres. hPa Vis. km Vento km/h
Oggi h: 11:55 sereno Sereno 27 21 69 1005 10 SO 29.6
Oggi h: 10:55 sereno Sereno 26 20 69 1005 10 S/SO 20.3
Oggi h: 09:55 sereno Sereno 26 20 69 1006 10 S/SO 14.8
Oggi h: 08:55 sereno Sereno 25 16 57 1005 10 O/SO 7.4
Oggi h: 07:55 sereno Sereno 23 16 64 1005 10 O/SO 11.1
Oggi h: 06:55 sereno Sereno 23 13 53 1005 10 O 7.4
Oggi h: 05:55 sereno Sereno 23 7 35 1005 10 N/NE 9.3
Oggi h: 04:55 sereno Sereno 24 7 33 1005 10 N/NE 11.1
Oggi h: 03:55 sereno Sereno 24 7 33 1005 10 N 29.6
Oggi h: 02:55 sereno Sereno 24 8 35 1005 10 N 25.9
Oggi h: 01:55 sereno Sereno 24 13 50 1005 10 N 31.5
Oggi h: 00:55 sereno Sereno 23 22 94 1005 10 N 31.5
Ieri h: 23:55 sereno Sereno 24 22 88 1005 10 N 27.8
Ieri h: 22:55 sereno Sereno 24 22 88 1004 10 N 33.3
Ieri h: 21:55 sereno Sereno 24 23 94 1004 10 N 35.2
Ieri h: 20:55 poco_nuvoloso Poco Nuvoloso 24 22 88 1004 10 N 33.3
Ieri h: 19:55 nuvoloso Nuvoloso 27 23 78 1003 10 N 33.3
Ieri h: 18:55 poco_nuvoloso Poco Nuvoloso 26 23 83 1003 10 N 22.2
Ieri h: 17:55 poco_nuvoloso Poco Nuvoloso 25 23 88 1003 10 N 24
Ieri h: 16:55 poco_nuvoloso Poco Nuvoloso 24 22 88 1004 10 N 24
Ieri h: 15:55 nuvoloso_temporali Temporale con Pioggia Debole 26 24 88 1004 8 N 14.8
Ieri h: 14:55 coperto_temporali Temporale 29 24 74 1005 10 N 14.8
Ieri h: 13:55 poco_nuvoloso Poco Nuvoloso 28 24 78 1005 10 N 1.8
Ieri h: 12:55 poco_nuvoloso Poco Nuvoloso 29 25 79 1006 10 E/NE 7.4